Anderson Regional Airport Anderson US
ICAO: KAND
IATA: AND
Category: Medium
Scheduled Services: No

Elevation: 782 ft
TransAlt. 18000 ft.

Airport Communications:
GREER APP/DEP:118.8
ASOS:120.675
CTAF:123.6
RDO:122.2
UNICOM:122.95

KAND Zoom In..

If Map Doesn't Load, Click Here

Runways:

(A) RW 05 length 6002 ft width 149 ft
ILS 111.90 / hdg 51

(B) RW 17 length 4996 ft width 149 ft
---- / hdg 171

(C) RW 23 length 6002 ft width 149 ft
---- / hdg 231

(D) RW 35 length 4996 ft width 149 ft
---- / hdg 351

Location; KAND
Day. 21 / Time. 15.56 Zulu
* Altimeter: 30.22
* Temperature: 28° c. 82.4°f.
* Wind from: VRB° Speed 04 kn.
Dewpoint: 20° c.
Visibility: 10 Statute Miles.
Clouds: Clear (automated report).

KAND 211556Z AUTO VRB04KT 10SM CLR 28/20 A3022 RMK AO2 SLP224 T02780200


Wind From VRB°
Speed 04 kn.

 
 
jpsmedia.com for Web Design worldairports.se 2018   terms of use